createdAt,value
2019-05-18T00:01:52.898Z,11.60
2019-05-18T00:04:21.793Z,11.60
2019-05-18T00:06:50.604Z,11.60
2019-05-18T00:09:19.399Z,11.50
2019-05-18T00:11:48.301Z,11.50
2019-05-18T00:14:17.102Z,11.50
2019-05-18T00:16:46.011Z,11.50
2019-05-18T00:19:14.906Z,11.50
2019-05-18T00:21:43.798Z,11.50
2019-05-18T00:24:13.056Z,11.40
2019-05-18T00:26:41.867Z,11.40
2019-05-18T00:29:10.737Z,11.40
2019-05-18T00:31:39.867Z,11.40
2019-05-18T00:34:08.689Z,11.40
2019-05-18T00:36:37.773Z,11.40
2019-05-18T00:39:07.135Z,11.40
2019-05-18T00:41:35.942Z,11.40
2019-05-18T00:44:04.816Z,11.40
2019-05-18T00:46:33.644Z,11.40
2019-05-18T00:49:02.526Z,11.40
2019-05-18T00:51:31.401Z,11.40
2019-05-18T00:54:00.255Z,11.40
2019-05-18T00:56:29.354Z,11.40
2019-05-18T00:58:58.212Z,11.50
2019-05-18T01:01:27.038Z,11.40
2019-05-18T01:03:56.241Z,11.40
2019-05-18T01:06:25.119Z,11.40
2019-05-18T01:08:54.057Z,11.40
2019-05-18T01:11:23.004Z,11.40
2019-05-18T01:13:51.879Z,11.30
2019-05-18T01:16:21.340Z,11.30
2019-05-18T01:18:50.140Z,11.20
2019-05-18T01:21:19.037Z,11.20
2019-05-18T01:23:48.209Z,11.20
2019-05-18T01:26:17.097Z,11.10
2019-05-18T01:28:45.921Z,11.10
2019-05-18T01:31:14.803Z,11.00
2019-05-18T01:33:43.616Z,11.00
2019-05-18T01:36:12.504Z,11.00
2019-05-18T01:38:41.367Z,10.90
2019-05-18T01:41:10.307Z,10.90
2019-05-18T01:43:39.198Z,10.80
2019-05-18T01:46:08.095Z,10.80
2019-05-18T01:48:36.925Z,10.80
2019-05-18T01:51:05.792Z,10.70
2019-05-18T01:53:34.674Z,10.70
2019-05-18T01:56:03.805Z,10.70
2019-05-18T01:58:32.692Z,10.60
2019-05-18T02:01:01.538Z,10.60
2019-05-18T02:03:30.474Z,10.60
2019-05-18T02:05:59.441Z,10.60
2019-05-18T02:08:28.664Z,10.60
2019-05-18T02:10:57.476Z,10.50
2019-05-18T02:13:26.365Z,10.50
2019-05-18T02:15:55.162Z,10.50
2019-05-18T02:18:29.189Z,10.40
2019-05-18T02:20:54.510Z,10.40
2019-05-18T02:23:23.388Z,10.40
2019-05-18T02:25:52.548Z,10.40
2019-05-18T02:28:21.605Z,10.30
2019-05-18T02:30:50.528Z,10.30
2019-05-18T02:33:19.666Z,10.30
2019-05-18T02:35:48.547Z,10.20
2019-05-18T02:38:18.073Z,10.20
2019-05-18T02:40:47.219Z,10.20
2019-05-18T02:43:16.236Z,10.10
2019-05-18T02:45:45.088Z,10.10
2019-05-18T02:48:13.911Z,10.10
2019-05-18T02:50:42.854Z,10.10
2019-05-18T02:53:11.740Z,10.10
2019-05-18T02:56:00.438Z,10.00
2019-05-18T02:58:29.594Z,10.00
2019-05-18T03:00:58.493Z,10.00
2019-05-18T03:03:29.452Z,9.90
2019-05-18T03:05:58.459Z,9.90
2019-05-18T03:08:27.339Z,9.90
2019-05-18T03:10:56.475Z,9.80
2019-05-18T03:13:25.445Z,9.80
2019-05-18T03:15:54.306Z,9.80
2019-05-18T03:18:23.261Z,9.80
2019-05-18T03:20:52.149Z,9.70
2019-05-18T03:23:21.033Z,9.70
2019-05-18T03:25:50.211Z,9.70
2019-05-18T03:28:19.089Z,9.70
2019-05-18T03:31:07.272Z,9.70
2019-05-18T03:33:36.444Z,9.70
2019-05-18T03:36:05.253Z,9.70
2019-05-18T03:38:34.144Z,9.70
2019-05-18T03:41:03.327Z,9.70
2019-05-18T03:43:32.571Z,9.70
2019-05-18T03:46:01.450Z,9.70
2019-05-18T03:48:31.493Z,9.70
2019-05-18T03:51:00.384Z,9.70
2019-05-18T03:53:29.268Z,9.70
2019-05-18T03:55:58.155Z,9.70
2019-05-18T03:58:27.012Z,9.70
2019-05-18T04:00:56.147Z,9.70
2019-05-18T04:03:25.026Z,9.70
2019-05-18T04:05:54.289Z,9.70
2019-05-18T04:08:23.439Z,9.80
2019-05-18T04:10:52.773Z,9.70
2019-05-18T04:13:21.644Z,9.80
2019-05-18T04:15:50.475Z,9.80
2019-05-18T04:18:19.346Z,9.80
2019-05-18T04:20:48.271Z,9.80
2019-05-18T04:23:17.209Z,9.80
2019-05-18T04:25:46.085Z,9.90
2019-05-18T04:28:15.428Z,9.90
2019-05-18T04:30:44.237Z,9.90
2019-05-18T04:33:13.254Z,10.00
2019-05-18T04:35:42.293Z,10.00
2019-05-18T04:38:11.437Z,10.00
2019-05-18T04:40:40.324Z,10.10
2019-05-18T04:43:09.404Z,10.10
2019-05-18T04:45:38.494Z,10.20
2019-05-18T04:48:07.397Z,10.20
2019-05-18T04:50:36.637Z,10.30
2019-05-18T04:53:05.798Z,10.40
2019-05-18T04:55:35.034Z,10.40
2019-05-18T04:58:03.958Z,10.50
2019-05-18T05:00:32.850Z,10.60
2019-05-18T05:03:02.866Z,10.60
2019-05-18T05:05:32.134Z,10.70
2019-05-18T05:08:01.583Z,10.80
2019-05-18T05:10:31.796Z,10.90
2019-05-18T05:13:01.219Z,10.90
2019-05-18T05:15:30.815Z,11.00
2019-05-18T05:18:00.325Z,11.10
2019-05-18T05:20:29.490Z,11.20
2019-05-18T05:22:58.980Z,11.20
2019-05-18T05:25:28.220Z,11.30
2019-05-18T05:27:58.203Z,11.40
2019-05-18T05:30:27.661Z,11.50
2019-05-18T05:32:56.668Z,11.60
2019-05-18T05:35:25.492Z,11.70
2019-05-18T05:37:54.449Z,11.80
2019-05-18T05:40:23.623Z,11.90
2019-05-18T05:42:52.792Z,11.90
2019-05-18T05:45:21.700Z,12.00
2019-05-18T05:47:50.530Z,12.10
2019-05-18T05:50:33.007Z,12.20
2019-05-18T05:52:49.987Z,12.30
2019-05-18T05:55:18.968Z,12.40
2019-05-18T05:57:48.296Z,12.50
2019-05-18T06:00:17.357Z,12.60
2019-05-18T06:02:46.272Z,12.70
2019-05-18T06:05:15.327Z,12.80
2019-05-18T06:07:44.618Z,12.90
2019-05-18T06:10:13.496Z,13.00
2019-05-18T06:12:42.454Z,13.10
2019-05-18T06:15:11.465Z,13.20
2019-05-18T06:17:40.363Z,13.40
2019-05-18T06:20:09.202Z,13.50
2019-05-18T06:22:38.321Z,13.60
2019-05-18T06:25:07.525Z,13.70
2019-05-18T06:27:37.063Z,13.80
2019-05-18T06:30:06.253Z,13.90
2019-05-18T06:32:35.389Z,14.10
2019-05-18T06:35:04.375Z,14.20
2019-05-18T06:37:33.276Z,14.30
2019-05-18T06:40:02.741Z,14.40
2019-05-18T06:42:31.746Z,14.50
2019-05-18T06:45:01.051Z,14.70
2019-05-18T06:47:30.030Z,14.80
2019-05-18T06:49:59.442Z,14.90
2019-05-18T06:52:28.450Z,15.10
2019-05-18T06:54:57.514Z,15.20
2019-05-18T06:57:26.848Z,15.40
2019-05-18T06:59:55.713Z,15.50
2019-05-18T07:02:24.795Z,15.70
2019-05-18T07:04:53.616Z,15.90
2019-05-18T07:07:22.803Z,16.00
2019-05-18T07:09:51.622Z,16.20
2019-05-18T07:12:20.880Z,16.40
2019-05-18T07:14:49.771Z,16.50
2019-05-18T07:17:18.593Z,16.70
2019-05-18T07:19:47.748Z,16.80
2019-05-18T07:22:16.557Z,17.00
2019-05-18T07:24:45.556Z,17.10
2019-05-18T07:27:14.714Z,17.30
2019-05-18T07:29:43.588Z,17.40
2019-05-18T07:32:12.417Z,17.60
2019-05-18T07:34:41.590Z,17.70
2019-05-18T07:37:10.488Z,17.90
2019-05-18T07:39:39.586Z,18.10
2019-05-18T07:42:08.413Z,18.30
2019-05-18T07:44:37.269Z,18.40
2019-05-18T07:47:06.687Z,18.60
2019-05-18T07:49:35.505Z,18.80
2019-05-18T07:52:04.393Z,19.00
2019-05-18T07:54:33.212Z,19.20
2019-05-18T07:57:03.501Z,19.40
2019-05-18T07:59:32.704Z,19.50
2019-05-18T08:02:01.714Z,19.50
2019-05-18T08:04:30.691Z,19.60
2019-05-18T08:06:59.949Z,19.70
2019-05-18T08:09:29.261Z,19.80
2019-05-18T08:11:58.489Z,19.90
2019-05-18T08:14:27.580Z,20.10
2019-05-18T08:16:56.466Z,20.20
2019-05-18T08:19:25.641Z,20.30
2019-05-18T08:21:54.674Z,20.40
2019-05-18T08:24:24.256Z,20.60
2019-05-18T08:26:53.457Z,20.70
2019-05-18T08:29:23.932Z,20.90
2019-05-18T08:31:53.084Z,21.00
2019-05-18T08:34:21.968Z,21.20
2019-05-18T08:36:50.773Z,21.30
2019-05-18T08:39:19.780Z,21.30
2019-05-18T08:41:48.932Z,21.40
2019-05-18T08:44:18.144Z,21.50
2019-05-18T08:46:47.379Z,21.60
2019-05-18T08:49:16.460Z,21.60
2019-05-18T08:51:45.281Z,21.70
2019-05-18T08:54:14.149Z,21.70
2019-05-18T08:56:43.340Z,21.70
2019-05-18T08:59:12.514Z,21.90
2019-05-18T09:01:41.513Z,21.90
2019-05-18T09:04:10.415Z,22.10
2019-05-18T09:06:39.745Z,22.20
2019-05-18T09:09:08.993Z,22.30
2019-05-18T09:11:37.883Z,22.40
2019-05-18T09:14:07.151Z,22.40
2019-05-18T09:16:35.972Z,22.40
2019-05-18T09:19:04.806Z,22.30
2019-05-18T09:21:33.677Z,22.40
2019-05-18T09:24:03.851Z,22.60
2019-05-18T09:26:32.729Z,22.70
2019-05-18T09:29:01.854Z,22.90
2019-05-18T09:31:30.824Z,23.00
2019-05-18T09:33:59.721Z,23.10
2019-05-18T09:36:29.276Z,23.10
2019-05-18T09:38:58.120Z,23.20
2019-05-18T09:41:27.137Z,23.20
2019-05-18T09:43:56.038Z,23.30
2019-05-18T09:46:24.945Z,23.30
2019-05-18T09:48:54.886Z,23.40
2019-05-18T09:51:24.108Z,23.60
2019-05-18T09:53:53.873Z,23.60
2019-05-18T09:56:24.306Z,23.70
2019-05-18T09:58:53.250Z,23.90
2019-05-18T10:01:22.213Z,24.10
2019-05-18T10:03:51.336Z,24.30
2019-05-18T10:06:20.233Z,24.30
2019-05-18T10:08:49.135Z,24.30
2019-05-18T10:11:18.109Z,24.50
2019-05-18T10:13:46.964Z,24.60
2019-05-18T10:16:16.036Z,24.50
2019-05-18T10:18:45.014Z,24.50
2019-05-18T10:21:13.888Z,24.50
2019-05-18T10:23:42.705Z,24.40
2019-05-18T10:26:12.232Z,24.20
2019-05-18T10:28:41.316Z,24.00
2019-05-18T10:31:10.337Z,23.80
2019-05-18T10:33:39.148Z,23.60
2019-05-18T10:36:07.947Z,23.50
2019-05-18T10:38:36.761Z,23.50
2019-05-18T10:41:05.725Z,23.60
2019-05-18T10:43:34.616Z,23.80
2019-05-18T10:46:03.504Z,24.10
2019-05-18T10:48:32.303Z,24.30
2019-05-18T10:51:01.118Z,24.50
2019-05-18T10:53:30.220Z,24.80
2019-05-18T10:55:59.470Z,25.00
2019-05-18T10:58:28.388Z,25.20
2019-05-18T11:00:57.281Z,25.50
2019-05-18T11:03:26.147Z,25.70
2019-05-18T11:05:54.984Z,26.00
2019-05-18T11:08:24.148Z,26.10
2019-05-18T11:10:53.057Z,26.10
2019-05-18T11:13:22.501Z,25.90
2019-05-18T11:15:51.641Z,25.70
2019-05-18T11:18:20.881Z,25.50
2019-05-18T11:20:49.851Z,25.30
2019-05-18T11:23:18.900Z,25.10
2019-05-18T11:25:47.852Z,24.90
2019-05-18T11:28:16.711Z,24.80
2019-05-18T11:30:45.604Z,25.00
2019-05-18T11:33:15.083Z,25.30
2019-05-18T11:35:44.181Z,25.60
2019-05-18T11:38:13.373Z,26.00
2019-05-18T11:40:42.789Z,26.20
2019-05-18T11:43:11.660Z,26.40
2019-05-18T11:45:40.965Z,26.60
2019-05-18T11:48:10.013Z,26.60
2019-05-18T11:50:38.885Z,26.70
2019-05-18T11:53:07.784Z,26.80
2019-05-18T12:00:45.225Z,27.60
2019-05-18T12:03:14.496Z,27.60
2019-05-18T12:05:43.336Z,27.60
2019-05-18T12:08:13.936Z,27.60
2019-05-18T12:10:42.754Z,27.70
2019-05-18T12:13:11.797Z,27.70
2019-05-18T12:15:41.024Z,27.70
2019-05-18T12:18:10.275Z,27.60
2019-05-18T12:20:39.244Z,27.70
2019-05-18T12:23:08.993Z,27.60
2019-05-18T12:25:38.048Z,27.50
2019-05-18T12:28:07.020Z,27.40
2019-05-18T12:30:36.129Z,27.40
2019-05-18T12:33:05.366Z,27.20
2019-05-18T12:37:57.599Z,26.70
2019-05-18T12:40:26.509Z,26.60
2019-05-18T12:42:55.896Z,26.60
2019-05-18T12:45:24.893Z,26.50
2019-05-18T12:47:53.849Z,26.40
2019-05-18T12:50:25.319Z,26.20
2019-05-18T12:52:54.223Z,26.00
2019-05-18T12:55:23.121Z,25.80
2019-05-18T12:57:53.569Z,25.90
2019-05-18T13:00:22.706Z,25.90
2019-05-18T13:02:53.422Z,25.70
2019-05-18T13:05:22.706Z,25.60
2019-05-18T13:07:51.645Z,25.50
2019-05-18T13:12:50.057Z,25.20
2019-05-18T13:15:20.818Z,25.20
2019-05-18T13:17:49.683Z,25.30
2019-05-18T13:20:19.514Z,25.70
2019-05-18T13:22:48.464Z,26.20
2019-05-18T13:25:17.567Z,26.30
2019-05-18T13:27:46.600Z,26.20
2019-05-18T13:30:19.550Z,26.00
2019-05-18T13:32:46.270Z,25.80
2019-05-18T13:35:15.700Z,25.60
2019-05-18T13:37:44.604Z,25.40
2019-05-18T13:40:13.561Z,25.30
